Terminal Aerodrome Forecast
Issued by NWS Albany, NY

Home | Current Version | Previous Version | Text Only | Print | Product List | Glossary On
Versions: 1 2 3 4 5 6 7 8 9 10 11 12 13 14 15 16 17 18
000
FTUS41 KALY 191732
TAFGFL
TAF
KGFL 191732Z 1918/2018 23007KT P6SM SCT035
     FM192000 29010KT P6SM BKN035
     FM200600 35007KT P6SM FEW035
     FM201100 03007KT P6SM SKC=

USA.gov is the U.S. government's official web portal to all federal, state and local government web resources and services.